Westrac — WTH4325 — position and weather

sailwx.info

Track history (hours):
 
Tides and Currents Weather Stations Pressure Air Temp Water Temp Dewpoint Dewpoint Depression Visibility Wind Speed Wind Dir Waves Ship Positions

Westrac

Owner: WESTERN TOWBOAT CO, SEATTLE, WA. More information available from US FCC via Universal Licensing System and Coast Guard Vessel Documentation Center.

Last reported at 2017-Feb-26 02:33 UTC. Time now 2017-Feb-26 07:39 UTC.
Position N 47°33' W 122°20'.

Length 23 m; draft 5 m.

Type: Tug. MMSI: 366993010.

Date/timePositionNaut miles runAvg speedWind from/ knotsBaromVisibWave heightAir tempDewpointWater temp
2017-Feb-26 02:33N 47°33' W 122°20'3 2.9
2017-Feb-26 01:33N 47°36' W 122°22'0 0.2
2017-Feb-26 00:33N 47°35' W 122°22'3 3.1
2017-Feb-25 23:34N 47°33' W 122°20'3 3.0
2017-Feb-25 22:33N 47°36' W 122°22'0 0.0
2017-Feb-25 21:34N 47°35' W 122°22'3 2.8
2017-Feb-25 20:33N 47°36' W 122°26'2 1.8
2017-Feb-25 19:33N 47°37' W 122°29'5 4.8
2017-Feb-25 18:33N 47°40' W 122°24'1 1.3
2017-Feb-25 17:33N 47°39' W 122°22'3 2.6
2017-Feb-25 16:33N 47°37' W 122°24'4 4.1
2017-Feb-25 15:33N 47°34' W 122°21'0 0.4
2017-Feb-25 14:33N 47°34' W 122°21'0 0.0
2017-Feb-25 13:33N 47°34' W 122°21'0 0.0
2017-Feb-25 12:33N 47°34' W 122°21'0 0.0
2017-Feb-25 11:33N 47°34' W 122°21'0 0.0
2017-Feb-25 10:33N 47°34' W 122°21'0 0.0
2017-Feb-25 09:33N 47°34' W 122°21'0 0.0
2017-Feb-25 08:33N 47°34' W 122°21'0 0.0
2017-Feb-25 07:34N 47°34' W 122°21'0 0.0
2017-Feb-25 06:33N 47°34' W 122°21'0 0.0
2017-Feb-25 05:33N 47°34' W 122°21'0 0.0
2017-Feb-25 04:33N 47°34' W 122°21'2 1.6
2017-Feb-25 03:33N 47°36' W 122°21'2 1.8
2017-Feb-25 02:33N 47°34' W 122°21'1 1.5
2017-Feb-25 01:33N 47°35' W 122°22'2 2.4
2017-Feb-25 00:33N 47°33' W 122°20'0 0.0
2017-Feb-24 23:33N 47°33' W 122°20'1 1.1
2017-Feb-24 22:33N 47°34' W 122°21'2 1.7
2017-Feb-24 21:33N 47°33' W 122°20'3 2.9
2017-Feb-24 20:33N 47°35' W 122°21'3 2.6
2017-Feb-24 19:33N 47°33' W 122°20'1 1.4
2017-Feb-24 18:33N 47°34' W 122°21'0 0.0
2017-Feb-24 17:33N 47°34' W 122°21'0 0.0
2017-Feb-24 16:33N 47°34' W 122°21'0 0.0
2017-Feb-24 15:33N 47°34' W 122°21'1 0.5
2017-Feb-24 14:33N 47°34' W 122°21'1 0.0
2017-Feb-23 19:06N 47°34' W 122°21'1 1.5
2017-Feb-23 18:33N 47°33' W 122°21'0 0.1
2017-Feb-23 17:33N 47°33' W 122°21'1 1.1
2017-Feb-23 16:33N 47°34' W 122°21'0 0.4
2017-Feb-23 15:33N 47°34' W 122°21'0 0.0
2017-Feb-23 04:33N 47°34' W 122°21'3 3.3
2017-Feb-23 03:33N 47°37' W 122°23'3 2.9
2017-Feb-23 02:34N 47°34' W 122°21'2 1.6
2017-Feb-23 01:33N 47°33' W 122°20'3 2.5
2017-Feb-23 00:33N 47°35' W 122°22'1 1.4
2017-Feb-22 23:33N 47°34' W 122°21'0 0.0
2017-Feb-22 22:33N 47°34' W 122°21'1 0.6
2017-Feb-22 21:33N 47°34' W 122°21'0 0.3
2017-Feb-22 20:33N 47°33' W 122°21'1 0.8
2017-Feb-22 19:33N 47°34' W 122°21'0 0.0
2017-Feb-22 07:08N 47°34' W 122°21'1 1.3
2017-Feb-22 06:34N 47°33' W 122°21'1 0.8
2017-Feb-22 05:33N 47°34' W 122°21'0 0.0
2017-Feb-22 04:33N 47°34' W 122°21'0 0.0
2017-Feb-22 03:34N 47°34' W 122°21'0 0.0
2017-Feb-22 02:34N 47°34' W 122°21'1 1.2
2017-Feb-22 01:34N 47°35' W 122°21'0 0.3
2017-Feb-22 00:34N 47°35' W 122°22'1 1.2
2017-Feb-21 23:33N 47°34' W 122°21'2 1.6
2017-Feb-21 22:34N 47°35' W 122°22'2 2.4
2017-Feb-21 21:33N 47°33' W 122°21'0 0.3
2017-Feb-21 20:33N 47°33' W 122°21'2 2.2
2017-Feb-21 19:34N 47°36' W 122°22'3 2.7
2017-Feb-21 18:34N 47°33' W 122°20'1 0.7
2017-Feb-21 17:33N 47°32' W 122°20'2 2.4
2017-Feb-21 16:33N 47°35' W 122°22'1 0.7
2017-Feb-21 15:34N 47°34' W 122°21'0 0.0
2017-Feb-19 19:33N 47°34' W 122°21'1 0.6
2017-Feb-19 18:33N 47°33' W 122°21'1 0.6
2017-Feb-19 17:33N 47°33' W 122°20'0 0.3
2017-Feb-19 16:33N 47°33' W 122°20'3 2.8
2017-Feb-19 15:33N 47°35' W 122°21'1 1.1
2017-Feb-19 14:33N 47°34' W 122°21'0 0.0
2017-Feb-18 17:33N 47°34' W 122°21'0 0.5
2017-Feb-18 16:33N 47°34' W 122°21'0 0.0
2017-Feb-18 15:33N 47°34' W 122°21'0 0.0
2017-Feb-18 14:33N 47°34' W 122°21'0 0.0
2017-Feb-18 13:33N 47°34' W 122°21'0 0.0
2017-Feb-18 12:33N 47°34' W 122°21'0 0.0
2017-Feb-18 11:33N 47°34' W 122°21'0 0.0
2017-Feb-18 10:33N 47°34' W 122°21'0 0.0
2017-Feb-18 09:33N 47°34' W 122°21'0 0.0
2017-Feb-18 08:33N 47°34' W 122°21'0 0.0
2017-Feb-18 07:33N 47°34' W 122°21'0 0.0
2017-Feb-18 06:33N 47°34' W 122°21'0 0.0
2017-Feb-18 05:33N 47°34' W 122°21'0 0.0
2017-Feb-18 04:33N 47°34' W 122°21'0 0.0
2017-Feb-18 03:33N 47°34' W 122°21'1 1.4
2017-Feb-18 02:33N 47°35' W 122°22'1 1.1
2017-Feb-18 01:33N 47°34' W 122°21'2 1.5
2017-Feb-18 00:33N 47°36' W 122°22'3 3.3
2017-Feb-17 23:33N 47°33' W 122°20'2 1.1
2017-Feb-17 21:33N 47°35' W 122°22'1 0.6
2017-Feb-17 20:33N 47°35' W 122°21'0 0.0
2017-Feb-17 19:33N 47°35' W 122°21'0 0.0
2017-Feb-17 18:33N 47°35' W 122°21'0 0.2
2017-Feb-17 17:33N 47°35' W 122°21'1 0.0
2017-Feb-16 20:33N 47°34' W 122°21'2 1.6
2017-Feb-16 19:34N 47°35' W 122°22'0 0.0
2017-Feb-16 18:34N 47°35' W 122°22'0 0.0
2017-Feb-16 17:34N 47°35' W 122°22'3 2.9
2017-Feb-16 16:33N 47°33' W 122°20'1 1.2
2017-Feb-16 15:34N 47°34' W 122°21'1 0.6
2017-Feb-16 14:33N 47°34' W 122°21'1 0.1
2017-Feb-16 04:24N 47°34' W 122°21'2 2.3
2017-Feb-16 03:34N 47°36' W 122°23'0 0.3
2017-Feb-16 02:34N 47°36' W 122°22'  
Track history (hours):
 
Tides and Currents Weather Stations Pressure Air Temp Water Temp Dewpoint Dewpoint Depression Visibility Wind Speed Wind Dir Waves Ship Positions

Westrac

Owner: WESTERN TOWBOAT CO, SEATTLE, WA. More information available from US FCC via Universal Licensing System and Coast Guard Vessel Documentation Center.

Last reported at 2017-Feb-26 02:33 UTC. Time now 2017-Feb-26 07:39 UTC.
Position N 47°33' W 122°20'.

Length 23 m; draft 5 m.

Type: Tug. MMSI: 366993010.

Date/timePositionNaut miles runAvg speedWind from/ knotsBaromVisibWave heightAir tempDewpointWater temp
2017-Feb-26 02:33N 47°33' W 122°20'3 2.9
2017-Feb-26 01:33N 47°36' W 122°22'0 0.2
2017-Feb-26 00:33N 47°35' W 122°22'3 3.1
2017-Feb-25 23:34N 47°33' W 122°20'3 3.0
2017-Feb-25 22:33N 47°36' W 122°22'0 0.0
2017-Feb-25 21:34N 47°35' W 122°22'3 2.8
2017-Feb-25 20:33N 47°36' W 122°26'2 1.8
2017-Feb-25 19:33N 47°37' W 122°29'5 4.8
2017-Feb-25 18:33N 47°40' W 122°24'1 1.3
2017-Feb-25 17:33N 47°39' W 122°22'3 2.6
2017-Feb-25 16:33N 47°37' W 122°24'4 4.1
2017-Feb-25 15:33N 47°34' W 122°21'0 0.4
2017-Feb-25 14:33N 47°34' W 122°21'0 0.0
2017-Feb-25 13:33N 47°34' W 122°21'0 0.0
2017-Feb-25 12:33N 47°34' W 122°21'0 0.0
2017-Feb-25 11:33N 47°34' W 122°21'0 0.0
2017-Feb-25 10:33N 47°34' W 122°21'0 0.0
2017-Feb-25 09:33N 47°34' W 122°21'0 0.0
2017-Feb-25 08:33N 47°34' W 122°21'0 0.0
2017-Feb-25 07:34N 47°34' W 122°21'0 0.0
2017-Feb-25 06:33N 47°34' W 122°21'0 0.0
2017-Feb-25 05:33N 47°34' W 122°21'0 0.0
2017-Feb-25 04:33N 47°34' W 122°21'2 1.6
2017-Feb-25 03:33N 47°36' W 122°21'2 1.8
2017-Feb-25 02:33N 47°34' W 122°21'1 1.5
2017-Feb-25 01:33N 47°35' W 122°22'2 2.4
2017-Feb-25 00:33N 47°33' W 122°20'0 0.0
2017-Feb-24 23:33N 47°33' W 122°20'1 1.1
2017-Feb-24 22:33N 47°34' W 122°21'2 1.7
2017-Feb-24 21:33N 47°33' W 122°20'3 2.9
2017-Feb-24 20:33N 47°35' W 122°21'3 2.6
2017-Feb-24 19:33N 47°33' W 122°20'1 1.4
2017-Feb-24 18:33N 47°34' W 122°21'0 0.0
2017-Feb-24 17:33N 47°34' W 122°21'0 0.0
2017-Feb-24 16:33N 47°34' W 122°21'0 0.0
2017-Feb-24 15:33N 47°34' W 122°21'1 0.5
2017-Feb-24 14:33N 47°34' W 122°21'1 0.0
2017-Feb-23 19:06N 47°34' W 122°21'1 1.5
2017-Feb-23 18:33N 47°33' W 122°21'0 0.1
2017-Feb-23 17:33N 47°33' W 122°21'1 1.1
2017-Feb-23 16:33N 47°34' W 122°21'0 0.4
2017-Feb-23 15:33N 47°34' W 122°21'0 0.0
2017-Feb-23 04:33N 47°34' W 122°21'3 3.3
2017-Feb-23 03:33N 47°37' W 122°23'3 2.9
2017-Feb-23 02:34N 47°34' W 122°21'2 1.6
2017-Feb-23 01:33N 47°33' W 122°20'3 2.5
2017-Feb-23 00:33N 47°35' W 122°22'1 1.4
2017-Feb-22 23:33N 47°34' W 122°21'0 0.0
2017-Feb-22 22:33N 47°34' W 122°21'1 0.6
2017-Feb-22 21:33N 47°34' W 122°21'0 0.3
2017-Feb-22 20:33N 47°33' W 122°21'1 0.8
2017-Feb-22 19:33N 47°34' W 122°21'0 0.0
2017-Feb-22 07:08N 47°34' W 122°21'1 1.3
2017-Feb-22 06:34N 47°33' W 122°21'1 0.8
2017-Feb-22 05:33N 47°34' W 122°21'0 0.0
2017-Feb-22 04:33N 47°34' W 122°21'0 0.0
2017-Feb-22 03:34N 47°34' W 122°21'0 0.0
2017-Feb-22 02:34N 47°34' W 122°21'1 1.2
2017-Feb-22 01:34N 47°35' W 122°21'0 0.3
2017-Feb-22 00:34N 47°35' W 122°22'1 1.2
2017-Feb-21 23:33N 47°34' W 122°21'2 1.6
2017-Feb-21 22:34N 47°35' W 122°22'2 2.4
2017-Feb-21 21:33N 47°33' W 122°21'0 0.3
2017-Feb-21 20:33N 47°33' W 122°21'2 2.2
2017-Feb-21 19:34N 47°36' W 122°22'3 2.7
2017-Feb-21 18:34N 47°33' W 122°20'1 0.7
2017-Feb-21 17:33N 47°32' W 122°20'2 2.4
2017-Feb-21 16:33N 47°35' W 122°22'1 0.7
2017-Feb-21 15:34N 47°34' W 122°21'0 0.0
2017-Feb-19 19:33N 47°34' W 122°21'1 0.6
2017-Feb-19 18:33N 47°33' W 122°21'1 0.6
2017-Feb-19 17:33N 47°33' W 122°20'0 0.3
2017-Feb-19 16:33N 47°33' W 122°20'3 2.8
2017-Feb-19 15:33N 47°35' W 122°21'1 1.1
2017-Feb-19 14:33N 47°34' W 122°21'0 0.0
2017-Feb-18 17:33N 47°34' W 122°21'0 0.5
2017-Feb-18 16:33N 47°34' W 122°21'0 0.0
2017-Feb-18 15:33N 47°34' W 122°21'0 0.0
2017-Feb-18 14:33N 47°34' W 122°21'0 0.0
2017-Feb-18 13:33N 47°34' W 122°21'0 0.0
2017-Feb-18 12:33N 47°34' W 122°21'0 0.0
2017-Feb-18 11:33N 47°34' W 122°21'0 0.0
2017-Feb-18 10:33N 47°34' W 122°21'0 0.0
2017-Feb-18 09:33N 47°34' W 122°21'0 0.0
2017-Feb-18 08:33N 47°34' W 122°21'0 0.0
2017-Feb-18 07:33N 47°34' W 122°21'0 0.0
2017-Feb-18 06:33N 47°34' W 122°21'0 0.0
2017-Feb-18 05:33N 47°34' W 122°21'0 0.0
2017-Feb-18 04:33N 47°34' W 122°21'0 0.0
2017-Feb-18 03:33N 47°34' W 122°21'1 1.4
2017-Feb-18 02:33N 47°35' W 122°22'1 1.1
2017-Feb-18 01:33N 47°34' W 122°21'2 1.5
2017-Feb-18 00:33N 47°36' W 122°22'3 3.3
2017-Feb-17 23:33N 47°33' W 122°20'2 1.1
2017-Feb-17 21:33N 47°35' W 122°22'1 0.6
2017-Feb-17 20:33N 47°35' W 122°21'0 0.0
2017-Feb-17 19:33N 47°35' W 122°21'0 0.0
2017-Feb-17 18:33N 47°35' W 122°21'0 0.2
2017-Feb-17 17:33N 47°35' W 122°21'1 0.0
2017-Feb-16 20:33N 47°34' W 122°21'2 1.6
2017-Feb-16 19:34N 47°35' W 122°22'0 0.0
2017-Feb-16 18:34N 47°35' W 122°22'0 0.0
2017-Feb-16 17:34N 47°35' W 122°22'3 2.9
2017-Feb-16 16:33N 47°33' W 122°20'1 1.2
2017-Feb-16 15:34N 47°34' W 122°21'1 0.6
2017-Feb-16 14:33N 47°34' W 122°21'1 0.1
2017-Feb-16 04:24N 47°34' W 122°21'2 2.3
2017-Feb-16 03:34N 47°36' W 122°23'0 0.3
2017-Feb-16 02:34N 47°36' W 122°22'  

Dump ship's entire track history